EDT,Max TemperatureF,Mean TemperatureF,Min TemperatureF,Max Dew PointF,MeanDew PointF,Min DewpointF,Max Humidity, Mean Humidity, Min Humidity, Max Sea Level PressureIn, Mean Sea Level PressureIn, Min Sea Level PressureIn, Max VisibilityMiles, Mean VisibilityMiles, Min VisibilityMiles, Max Wind SpeedMPH, Mean Wind SpeedMPH, Max Gust SpeedMPH,PrecipitationIn, CloudCover, Events, WindDirDegrees
2013-4-1,66,54,41,52,43,24,100,84,46,29.98,29.82,29.76,10,6,0,15,4,23,0.00,4,Fog-Rain,277
2013-4-2,50,40,31,27,22,18,70,51,30,30.20,30.09,30.00,10,10,10,21,6,28,0.00,0,,337
2013-4-3,50,41,32,22,20,18,62,48,32,30.40,30.26,30.20,10,10,10,16,7,28,0.00,0,,335
2013-4-4,50,39,28,38,23,18,100,61,35,30.46,30.37,30.16,10,10,10,13,5,,0.06,3,Rain,306
2013-4-5,62,49,36,45,36,30,100,83,30,30.15,29.98,29.85,10,8,2,12,6,,0.71,5,Rain,28
2013-4-6,53,44,35,32,28,24,70,53,35,30.37,30.23,30.06,10,10,10,12,7,18,0.00,0,,15
2013-4-7,64,51,38,48,39,32,93,76,45,30.36,30.26,30.06,10,10,10,23,8,30,0.00,1,,186
2013-4-8,77,62,48,55,48,45,93,71,39,30.13,30.07,30.03,10,10,10,12,8,,0.00,1,,209
2013-4-9,84,70,57,57,55,53,88,65,39,30.11,30.05,29.99,10,10,10,16,9,17,0.00,0,,228
2013-4-10,87,74,60,59,57,55,83,64,38,30.01,29.95,29.85,10,10,10,16,8,23,0.00,0,,226
2013-4-11,84,67,50,64,58,50,100,79,48,29.92,29.87,28.98,10,10,5,17,6,29,0.00,3,,131
2013-4-12,75,62,50,72,56,50,100,98,73,29.89,29.76,29.63,10,4,2,20,10,29,0.02,7,Rain,115
2013-4-13,68,56,43,61,47,41,100,85,43,29.99,29.90,29.75,10,7,3,14,7,21,0.00,1,,342
2013-4-14,66,53,40,50,44,41,100,81,40,30.17,30.08,29.99,10,9,5,12,3,17,0.00,1,,334
2013-4-15,62,56,51,49,48,45,92,80,59,30.34,30.26,30.18,10,10,10,13,6,,0.00,3,Rain,124
2013-4-16,73,62,50,58,52,48,95,84,57,30.36,30.31,30.19,10,10,10,17,7,25,0.00,3,,161
2013-4-17,77,68,58,64,59,54,100,88,61,30.28,30.21,30.16,10,10,7,15,9,20,0.00,3,,204
2013-4-18,75,66,56,64,57,54,100,89,53,30.29,30.23,30.08,10,7,2,17,7,29,0.00,6,Rain,143
2013-4-19,77,69,55,66,64,55,100,92,69,30.08,29.93,29.69,10,10,4,26,12,45,0.16,4,Rain-Thunderstorm,199
2013-4-20,59,54,47,54,41,32,100,71,38,30.35,30.03,29.82,10,10,7,16,9,21,0.29,5,Rain,333
2013-4-21,55,46,38,34,30,10,82,58,19,30.63,30.52,30.36,10,10,10,12,6,18,0.00,1,,42
2013-4-22,53,43,33,42,37,34,100,86,58,30.63,30.56,30.44,10,10,10,16,4,22,0.00,2,,58
2013-4-23,59,52,44,46,44,41,100,86,63,30.44,30.32,30.17,10,8,7,15,9,20,0.00,6,,53
2013-4-24,71,56,41,57,49,41,100,90,60,30.18,30.08,29.87,10,6,2,20,4,29,0.00,3,,192
2013-4-25,65,56,46,57,41,34,80,61,34,30.33,30.20,29.94,10,10,10,23,11,31,0.00,3,Rain,347
2013-4-26,66,52,39,44,41,37,100,76,37,30.47,30.40,30.33,10,10,7,12,2,,0.00,0,,7
2013-4-27,71,56,41,46,42,36,100,73,32,30.47,30.42,30.34,10,10,7,9,1,,0.00,0,,80
2013-4-28,71,56,41,50,42,36,100,72,33,30.35,30.30,30.21,10,10,10,13,2,20,0.00,2,,170
2013-4-29,59,55,51,59,53,43,100,97,65,30.23,30.17,30.12,10,6,2,14,6,17,0.39,7,Rain,136
2013-4-30,57,54,51,57,55,51,100,99,82,30.31,30.19,30.12,10,6,2,14,8,18,0.01,7,Rain,94